sensor_id;sensor_type;location;lat;lon;timestamp;P1;durP1;ratioP1;P2;durP2;ratioP2
1949;SDS011;975;48.760;9.152;2023-02-12T00:00:14;24.67;;;11.57;;
1949;SDS011;975;48.760;9.152;2023-02-12T00:02:41;25.92;;;11.57;;
1949;SDS011;975;48.760;9.152;2023-02-12T00:05:09;26.23;;;13.05;;
1949;SDS011;975;48.760;9.152;2023-02-12T00:07:38;27.98;;;12.13;;
1949;SDS011;975;48.760;9.152;2023-02-12T00:10:06;28.10;;;12.15;;
1949;SDS011;975;48.760;9.152;2023-02-12T00:12:34;22.70;;;11.60;;
1949;SDS011;975;48.760;9.152;2023-02-12T00:15:05;24.13;;;10.90;;
1949;SDS011;975;48.760;9.152;2023-02-12T00:17:33;24.33;;;11.02;;
1949;SDS011;975;48.760;9.152;2023-02-12T00:20:00;23.08;;;10.77;;
1949;SDS011;975;48.760;9.152;2023-02-12T00:22:34;22.55;;;10.85;;
1949;SDS011;975;48.760;9.152;2023-02-12T00:25:03;25.60;;;10.95;;
1949;SDS011;975;48.760;9.152;2023-02-12T00:27:31;25.92;;;11.10;;
1949;SDS011;975;48.760;9.152;2023-02-12T00:29:59;22.10;;;10.82;;
1949;SDS011;975;48.760;9.152;2023-02-12T00:32:27;23.50;;;10.88;;
1949;SDS011;975;48.760;9.152;2023-02-12T00:34:54;25.45;;;11.13;;
1949;SDS011;975;48.760;9.152;2023-02-12T00:37:22;24.50;;;10.77;;
1949;SDS011;975;48.760;9.152;2023-02-12T00:39:50;26.17;;;11.57;;
1949;SDS011;975;48.760;9.152;2023-02-12T00:42:19;26.05;;;11.07;;
1949;SDS011;975;48.760;9.152;2023-02-12T00:44:46;19.35;;;9.15;;
1949;SDS011;975;48.760;9.152;2023-02-12T00:47:14;20.90;;;10.25;;
1949;SDS011;975;48.760;9.152;2023-02-12T00:49:42;20.85;;;10.13;;
1949;SDS011;975;48.760;9.152;2023-02-12T00:52:09;22.10;;;10.00;;
1949;SDS011;975;48.760;9.152;2023-02-12T00:54:37;20.88;;;11.00;;
1949;SDS011;975;48.760;9.152;2023-02-12T00:57:05;20.38;;;9.48;;
1949;SDS011;975;48.760;9.152;2023-02-12T00:59:34;23.05;;;8.88;;
1949;SDS011;975;48.760;9.152;2023-02-12T01:02:06;21.92;;;9.57;;
1949;SDS011;975;48.760;9.152;2023-02-12T01:04:34;17.52;;;9.32;;
1949;SDS011;975;48.760;9.152;2023-02-12T01:07:01;19.45;;;9.73;;
1949;SDS011;975;48.760;9.152;2023-02-12T01:09:29;19.52;;;8.82;;
1949;SDS011;975;48.760;9.152;2023-02-12T01:11:57;22.73;;;10.15;;
1949;SDS011;975;48.760;9.152;2023-02-12T01:14:24;23.75;;;9.80;;
1949;SDS011;975;48.760;9.152;2023-02-12T01:16:53;21.65;;;10.18;;
1949;SDS011;975;48.760;9.152;2023-02-12T01:19:21;21.67;;;10.30;;
1949;SDS011;975;48.760;9.152;2023-02-12T01:21:49;23.13;;;10.40;;
1949;SDS011;975;48.760;9.152;2023-02-12T01:24:16;18.98;;;9.30;;
1949;SDS011;975;48.760;9.152;2023-02-12T01:26:44;21.33;;;11.25;;
1949;SDS011;975;48.760;9.152;2023-02-12T01:29:11;22.00;;;10.73;;
1949;SDS011;975;48.760;9.152;2023-02-12T01:31:39;25.90;;;11.57;;
1949;SDS011;975;48.760;9.152;2023-02-12T01:34:08;22.27;;;10.63;;
1949;SDS011;975;48.760;9.152;2023-02-12T01:36:36;27.33;;;12.23;;
1949;SDS011;975;48.760;9.152;2023-02-12T01:39:05;25.73;;;10.77;;
1949;SDS011;975;48.760;9.152;2023-02-12T01:41:35;24.45;;;10.75;;
1949;SDS011;975;48.760;9.152;2023-02-12T01:44:14;25.48;;;11.40;;
1949;SDS011;975;48.760;9.152;2023-02-12T01:46:43;27.33;;;12.85;;
1949;SDS011;975;48.760;9.152;2023-02-12T01:49:17;24.85;;;12.60;;
1949;SDS011;975;48.760;9.152;2023-02-12T01:51:45;22.95;;;10.82;;
1949;SDS011;975;48.760;9.152;2023-02-12T01:54:13;25.13;;;11.90;;
1949;SDS011;975;48.760;9.152;2023-02-12T01:56:41;25.65;;;11.88;;
1949;SDS011;975;48.760;9.152;2023-02-12T01:59:09;29.40;;;12.02;;
1949;SDS011;975;48.760;9.152;2023-02-12T02:01:37;29.42;;;12.98;;
1949;SDS011;975;48.760;9.152;2023-02-12T02:04:06;27.80;;;13.43;;
1949;SDS011;975;48.760;9.152;2023-02-12T02:06:37;30.83;;;13.48;;
1949;SDS011;975;48.760;9.152;2023-02-12T02:09:10;25.55;;;12.43;;
1949;SDS011;975;48.760;9.152;2023-02-12T02:11:37;27.35;;;12.85;;
1949;SDS011;975;48.760;9.152;2023-02-12T02:14:25;30.27;;;12.48;;
1949;SDS011;975;48.760;9.152;2023-02-12T02:17:01;32.13;;;12.88;;
1949;SDS011;975;48.760;9.152;2023-02-12T02:22:37;24.35;;;12.52;;
1949;SDS011;975;48.760;9.152;2023-02-12T02:25:17;22.55;;;11.40;;
1949;SDS011;975;48.760;9.152;2023-02-12T02:28:01;27.73;;;11.95;;
1949;SDS011;975;48.760;9.152;2023-02-12T02:30:39;23.58;;;10.75;;
1949;SDS011;975;48.760;9.152;2023-02-12T02:33:14;26.63;;;11.10;;
1949;SDS011;975;48.760;9.152;2023-02-12T02:35:52;26.15;;;11.13;;
1949;SDS011;975;48.760;9.152;2023-02-12T02:38:25;25.05;;;11.48;;
1949;SDS011;975;48.760;9.152;2023-02-12T02:41:00;24.38;;;10.70;;
1949;SDS011;975;48.760;9.152;2023-02-12T02:43:32;24.33;;;10.77;;
1949;SDS011;975;48.760;9.152;2023-02-12T02:46:08;25.65;;;11.18;;
1949;SDS011;975;48.760;9.152;2023-02-12T02:48:43;25.77;;;11.50;;
1949;SDS011;975;48.760;9.152;2023-02-12T02:51:17;25.48;;;11.25;;
1949;SDS011;975;48.760;9.152;2023-02-12T02:53:48;24.45;;;10.32;;
1949;SDS011;975;48.760;9.152;2023-02-12T02:56:20;26.45;;;10.23;;
1949;SDS011;975;48.760;9.152;2023-02-12T02:58:50;25.95;;;11.77;;
1949;SDS011;975;48.760;9.152;2023-02-12T03:01:23;24.70;;;10.77;;
1949;SDS011;975;48.760;9.152;2023-02-12T03:03:57;27.15;;;11.70;;
1949;SDS011;975;48.760;9.152;2023-02-12T03:06:29;24.58;;;11.10;;
1949;SDS011;975;48.760;9.152;2023-02-12T03:09:04;19.38;;;9.40;;
1949;SDS011;975;48.760;9.152;2023-02-12T03:11:41;27.27;;;11.13;;
1949;SDS011;975;48.760;9.152;2023-02-12T03:14:10;20.10;;;9.52;;
1949;SDS011;975;48.760;9.152;2023-02-12T03:16:45;21.75;;;9.73;;
1949;SDS011;975;48.760;9.152;2023-02-12T03:19:18;22.40;;;9.43;;
1949;SDS011;975;48.760;9.152;2023-02-12T03:21:48;19.65;;;9.90;;
1949;SDS011;975;48.760;9.152;2023-02-12T03:24:20;20.00;;;9.98;;
1949;SDS011;975;48.760;9.152;2023-02-12T03:26:53;23.15;;;9.63;;
1949;SDS011;975;48.760;9.152;2023-02-12T03:29:25;20.45;;;10.10;;
1949;SDS011;975;48.760;9.152;2023-02-12T03:31:57;21.08;;;9.82;;
1949;SDS011;975;48.760;9.152;2023-02-12T03:34:40;23.27;;;10.43;;
1949;SDS011;975;48.760;9.152;2023-02-12T03:37:15;21.08;;;9.40;;
1949;SDS011;975;48.760;9.152;2023-02-12T03:39:49;21.90;;;9.98;;
1949;SDS011;975;48.760;9.152;2023-02-12T03:42:23;21.85;;;10.60;;
1949;SDS011;975;48.760;9.152;2023-02-12T03:44:59;19.40;;;8.60;;
1949;SDS011;975;48.760;9.152;2023-02-12T03:47:38;20.27;;;9.48;;
1949;SDS011;975;48.760;9.152;2023-02-12T03:50:11;22.10;;;10.82;;
1949;SDS011;975;48.760;9.152;2023-02-12T03:52:42;19.13;;;9.82;;
1949;SDS011;975;48.760;9.152;2023-02-12T03:55:12;22.15;;;10.13;;
1949;SDS011;975;48.760;9.152;2023-02-12T03:57:41;17.15;;;9.75;;
1949;SDS011;975;48.760;9.152;2023-02-12T04:00:12;17.63;;;8.02;;
1949;SDS011;975;48.760;9.152;2023-02-12T04:02:43;19.40;;;9.98;;
1949;SDS011;975;48.760;9.152;2023-02-12T04:05:15;21.52;;;10.00;;
1949;SDS011;975;48.760;9.152;2023-02-12T04:07:44;19.83;;;9.63;;
1949;SDS011;975;48.760;9.152;2023-02-12T04:10:12;22.98;;;10.70;;
1949;SDS011;975;48.760;9.152;2023-02-12T04:12:45;21.30;;;10.68;;
1949;SDS011;975;48.760;9.152;2023-02-12T04:15:27;21.92;;;10.68;;
1949;SDS011;975;48.760;9.152;2023-02-12T04:18:06;27.58;;;11.23;;
1949;SDS011;975;48.760;9.152;2023-02-12T04:20:45;22.67;;;11.20;;
1949;SDS011;975;48.760;9.152;2023-02-12T04:23:27;25.83;;;11.60;;
1949;SDS011;975;48.760;9.152;2023-02-12T04:26:08;24.23;;;11.45;;
1949;SDS011;975;48.760;9.152;2023-02-12T04:28:45;27.30;;;13.45;;
1949;SDS011;975;48.760;9.152;2023-02-12T04:31:19;25.95;;;11.70;;
1949;SDS011;975;48.760;9.152;2023-02-12T04:33:57;28.02;;;12.98;;
1949;SDS011;975;48.760;9.152;2023-02-12T04:36:31;29.63;;;11.88;;
1949;SDS011;975;48.760;9.152;2023-02-12T04:39:02;22.70;;;10.75;;
1949;SDS011;975;48.760;9.152;2023-02-12T04:41:36;25.60;;;11.27;;
1949;SDS011;975;48.760;9.152;2023-02-12T04:44:17;23.00;;;11.60;;
1949;SDS011;975;48.760;9.152;2023-02-12T04:46:47;26.48;;;12.90;;
1949;SDS011;975;48.760;9.152;2023-02-12T04:49:16;27.02;;;11.98;;
1949;SDS011;975;48.760;9.152;2023-02-12T04:51:46;27.45;;;12.38;;
1949;SDS011;975;48.760;9.152;2023-02-12T04:54:14;26.27;;;12.93;;
1949;SDS011;975;48.760;9.152;2023-02-12T04:56:43;26.55;;;12.80;;
1949;SDS011;975;48.760;9.152;2023-02-12T04:59:11;23.90;;;11.23;;
1949;SDS011;975;48.760;9.152;2023-02-12T05:01:38;27.83;;;13.35;;
1949;SDS011;975;48.760;9.152;2023-02-12T05:04:08;25.00;;;11.50;;
1949;SDS011;975;48.760;9.152;2023-02-12T05:06:39;24.88;;;11.48;;
1949;SDS011;975;48.760;9.152;2023-02-12T05:09:07;23.85;;;11.20;;
1949;SDS011;975;48.760;9.152;2023-02-12T05:11:36;23.42;;;10.60;;
1949;SDS011;975;48.760;9.152;2023-02-12T05:14:03;22.45;;;11.38;;
1949;SDS011;975;48.760;9.152;2023-02-12T05:16:30;22.30;;;11.18;;
1949;SDS011;975;48.760;9.152;2023-02-12T05:18:58;25.10;;;11.50;;
1949;SDS011;975;48.760;9.152;2023-02-12T05:21:25;25.77;;;11.00;;
1949;SDS011;975;48.760;9.152;2023-02-12T05:23:54;26.13;;;11.57;;
1949;SDS011;975;48.760;9.152;2023-02-12T05:26:25;27.35;;;12.63;;
1949;SDS011;975;48.760;9.152;2023-02-12T05:28:55;24.48;;;11.00;;
1949;SDS011;975;48.760;9.152;2023-02-12T05:31:22;25.40;;;12.38;;
1949;SDS011;975;48.760;9.152;2023-02-12T05:33:49;23.55;;;11.13;;
1949;SDS011;975;48.760;9.152;2023-02-12T05:36:18;21.38;;;11.23;;
1949;SDS011;975;48.760;9.152;2023-02-12T05:38:47;24.42;;;11.20;;
1949;SDS011;975;48.760;9.152;2023-02-12T05:41:17;24.63;;;11.13;;
1949;SDS011;975;48.760;9.152;2023-02-12T05:43:46;23.42;;;10.27;;
1949;SDS011;975;48.760;9.152;2023-02-12T05:46:18;23.80;;;11.23;;
1949;SDS011;975;48.760;9.152;2023-02-12T05:48:47;24.45;;;11.13;;
1949;SDS011;975;48.760;9.152;2023-02-12T05:51:15;26.50;;;11.43;;
1949;SDS011;975;48.760;9.152;2023-02-12T05:53:46;24.40;;;11.27;;
1949;SDS011;975;48.760;9.152;2023-02-12T05:56:15;24.52;;;11.50;;
1949;SDS011;975;48.760;9.152;2023-02-12T06:01:14;32.17;;;13.63;;
1949;SDS011;975;48.760;9.152;2023-02-12T06:03:43;28.83;;;13.20;;
1949;SDS011;975;48.760;9.152;2023-02-12T06:06:11;28.42;;;12.90;;
1949;SDS011;975;48.760;9.152;2023-02-12T06:08:39;27.35;;;13.43;;
1949;SDS011;975;48.760;9.152;2023-02-12T06:11:07;31.35;;;13.15;;
1949;SDS011;975;48.760;9.152;2023-02-12T06:13:39;27.50;;;13.57;;
1949;SDS011;975;48.760;9.152;2023-02-12T06:18:53;29.52;;;14.73;;
1949;SDS011;975;48.760;9.152;2023-02-12T06:21:22;34.90;;;16.50;;
1949;SDS011;975;48.760;9.152;2023-02-12T06:23:54;38.83;;;17.77;;
1949;SDS011;975;48.760;9.152;2023-02-12T06:26:22;34.75;;;17.15;;
1949;SDS011;975;48.760;9.152;2023-02-12T06:28:52;36.38;;;17.27;;
1949;SDS011;975;48.760;9.152;2023-02-12T06:31:20;39.58;;;18.25;;
1949;SDS011;975;48.760;9.152;2023-02-12T06:33:49;35.45;;;17.35;;
1949;SDS011;975;48.760;9.152;2023-02-12T06:36:17;37.63;;;18.17;;
1949;SDS011;975;48.760;9.152;2023-02-12T06:38:45;36.30;;;17.30;;
1949;SDS011;975;48.760;9.152;2023-02-12T06:41:13;32.55;;;15.60;;
1949;SDS011;975;48.760;9.152;2023-02-12T06:43:41;34.63;;;14.05;;
1949;SDS011;975;48.760;9.152;2023-02-12T06:46:10;29.63;;;12.30;;
1949;SDS011;975;48.760;9.152;2023-02-12T06:48:37;35.38;;;13.80;;
1949;SDS011;975;48.760;9.152;2023-02-12T06:51:05;26.10;;;12.77;;
1949;SDS011;975;48.760;9.152;2023-02-12T06:53:34;27.30;;;12.60;;
1949;SDS011;975;48.760;9.152;2023-02-12T06:56:02;29.10;;;12.80;;
1949;SDS011;975;48.760;9.152;2023-02-12T06:58:30;25.35;;;11.35;;
1949;SDS011;975;48.760;9.152;2023-02-12T07:01:06;27.17;;;12.15;;
1949;SDS011;975;48.760;9.152;2023-02-12T07:03:39;27.25;;;13.15;;
1949;SDS011;975;48.760;9.152;2023-02-12T07:06:06;27.30;;;13.05;;
1949;SDS011;975;48.760;9.152;2023-02-12T07:08:35;28.00;;;14.05;;
1949;SDS011;975;48.760;9.152;2023-02-12T07:11:05;33.13;;;13.80;;
1949;SDS011;975;48.760;9.152;2023-02-12T07:13:34;31.02;;;12.98;;
1949;SDS011;975;48.760;9.152;2023-02-12T07:16:02;32.13;;;15.23;;
1949;SDS011;975;48.760;9.152;2023-02-12T07:18:31;32.33;;;15.18;;
1949;SDS011;975;48.760;9.152;2023-02-12T07:21:01;32.25;;;16.02;;
1949;SDS011;975;48.760;9.152;2023-02-12T07:23:28;34.08;;;13.57;;
1949;SDS011;975;48.760;9.152;2023-02-12T07:25:56;32.50;;;14.05;;
1949;SDS011;975;48.760;9.152;2023-02-12T07:28:24;28.67;;;13.65;;
1949;SDS011;975;48.760;9.152;2023-02-12T07:30:57;28.80;;;13.18;;
1949;SDS011;975;48.760;9.152;2023-02-12T07:33:25;35.13;;;14.98;;
1949;SDS011;975;48.760;9.152;2023-02-12T07:35:53;30.70;;;15.00;;
1949;SDS011;975;48.760;9.152;2023-02-12T07:38:21;31.52;;;15.05;;
1949;SDS011;975;48.760;9.152;2023-02-12T07:40:49;31.65;;;15.05;;
1949;SDS011;975;48.760;9.152;2023-02-12T07:43:16;32.45;;;14.82;;
1949;SDS011;975;48.760;9.152;2023-02-12T07:45:44;34.95;;;15.32;;
1949;SDS011;975;48.760;9.152;2023-02-12T07:48:11;30.63;;;15.23;;
1949;SDS011;975;48.760;9.152;2023-02-12T07:50:38;35.92;;;15.10;;
1949;SDS011;975;48.760;9.152;2023-02-12T07:53:06;29.98;;;15.57;;
1949;SDS011;975;48.760;9.152;2023-02-12T07:55:35;31.15;;;15.23;;
1949;SDS011;975;48.760;9.152;2023-02-12T07:58:02;30.60;;;14.93;;
1949;SDS011;975;48.760;9.152;2023-02-12T08:00:29;34.15;;;15.68;;
1949;SDS011;975;48.760;9.152;2023-02-12T08:02:57;34.55;;;15.95;;
1949;SDS011;975;48.760;9.152;2023-02-12T08:05:24;35.95;;;16.45;;
1949;SDS011;975;48.760;9.152;2023-02-12T08:07:56;35.80;;;15.85;;
1949;SDS011;975;48.760;9.152;2023-02-12T08:10:24;28.30;;;15.05;;
1949;SDS011;975;48.760;9.152;2023-02-12T08:12:53;35.25;;;15.60;;
1949;SDS011;975;48.760;9.152;2023-02-12T08:15:20;32.55;;;15.32;;
1949;SDS011;975;48.760;9.152;2023-02-12T08:17:48;32.45;;;17.05;;
1949;SDS011;975;48.760;9.152;2023-02-12T08:20:16;39.38;;;17.55;;
1949;SDS011;975;48.760;9.152;2023-02-12T08:22:43;35.92;;;15.75;;
1949;SDS011;975;48.760;9.152;2023-02-12T08:25:11;35.13;;;16.30;;
1949;SDS011;975;48.760;9.152;2023-02-12T08:27:39;42.17;;;17.55;;
1949;SDS011;975;48.760;9.152;2023-02-12T08:30:09;36.80;;;17.15;;
1949;SDS011;975;48.760;9.152;2023-02-12T08:32:37;36.08;;;17.38;;
1949;SDS011;975;48.760;9.152;2023-02-12T08:35:05;36.90;;;17.20;;
1949;SDS011;975;48.760;9.152;2023-02-12T08:37:33;39.63;;;18.80;;
1949;SDS011;975;48.760;9.152;2023-02-12T08:40:00;45.72;;;18.40;;
1949;SDS011;975;48.760;9.152;2023-02-12T08:42:28;39.83;;;19.40;;
1949;SDS011;975;48.760;9.152;2023-02-12T08:44:55;37.85;;;18.02;;
1949;SDS011;975;48.760;9.152;2023-02-12T08:47:24;38.38;;;18.88;;
1949;SDS011;975;48.760;9.152;2023-02-12T08:49:55;44.47;;;20.58;;
1949;SDS011;975;48.760;9.152;2023-02-12T08:54:51;43.60;;;20.20;;
1949;SDS011;975;48.760;9.152;2023-02-12T08:57:19;47.58;;;21.42;;
1949;SDS011;975;48.760;9.152;2023-02-12T08:59:47;49.80;;;21.70;;
1949;SDS011;975;48.760;9.152;2023-02-12T09:02:15;37.55;;;18.80;;
1949;SDS011;975;48.760;9.152;2023-02-12T09:04:44;44.50;;;21.67;;
1949;SDS011;975;48.760;9.152;2023-02-12T09:07:12;47.28;;;21.92;;
1949;SDS011;975;48.760;9.152;2023-02-12T09:09:41;44.47;;;20.25;;
1949;SDS011;975;48.760;9.152;2023-02-12T09:12:09;43.70;;;18.70;;
1949;SDS011;975;48.760;9.152;2023-02-12T09:14:38;38.63;;;19.40;;
1949;SDS011;975;48.760;9.152;2023-02-12T09:17:07;37.13;;;18.13;;
1949;SDS011;975;48.760;9.152;2023-02-12T09:19:35;35.78;;;17.90;;
1949;SDS011;975;48.760;9.152;2023-02-12T09:22:04;39.75;;;18.65;;
1949;SDS011;975;48.760;9.152;2023-02-12T09:24:31;40.85;;;18.30;;
1949;SDS011;975;48.760;9.152;2023-02-12T09:26:59;36.15;;;17.92;;
1949;SDS011;975;48.760;9.152;2023-02-12T09:29:27;37.00;;;17.48;;
1949;SDS011;975;48.760;9.152;2023-02-12T09:31:54;37.72;;;16.55;;
1949;SDS011;975;48.760;9.152;2023-02-12T09:34:22;36.92;;;15.98;;
1949;SDS011;975;48.760;9.152;2023-02-12T09:36:50;31.05;;;15.15;;
1949;SDS011;975;48.760;9.152;2023-02-12T09:39:19;38.17;;;16.40;;
1949;SDS011;975;48.760;9.152;2023-02-12T09:41:58;38.60;;;18.10;;
1949;SDS011;975;48.760;9.152;2023-02-12T09:44:32;37.35;;;17.13;;
1949;SDS011;975;48.760;9.152;2023-02-12T09:47:03;31.65;;;15.73;;
1949;SDS011;975;48.760;9.152;2023-02-12T09:49:42;36.65;;;17.33;;
1949;SDS011;975;48.760;9.152;2023-02-12T09:52:14;27.25;;;13.05;;
1949;SDS011;975;48.760;9.152;2023-02-12T09:54:44;24.98;;;11.75;;
1949;SDS011;975;48.760;9.152;2023-02-12T09:59:42;30.70;;;13.20;;
1949;SDS011;975;48.760;9.152;2023-02-12T10:02:10;27.85;;;12.57;;
1949;SDS011;975;48.760;9.152;2023-02-12T10:04:39;28.58;;;12.82;;
1949;SDS011;975;48.760;9.152;2023-02-12T10:07:10;18.48;;;8.63;;
1949;SDS011;975;48.760;9.152;2023-02-12T10:09:56;21.70;;;9.57;;
1949;SDS011;975;48.760;9.152;2023-02-12T10:12:29;21.63;;;10.10;;
1949;SDS011;975;48.760;9.152;2023-02-12T10:15:10;21.00;;;9.82;;
1949;SDS011;975;48.760;9.152;2023-02-12T10:17:41;20.60;;;9.73;;
1949;SDS011;975;48.760;9.152;2023-02-12T10:22:59;24.17;;;11.77;;
1949;SDS011;975;48.760;9.152;2023-02-12T10:25:35;21.75;;;9.32;;
1949;SDS011;975;48.760;9.152;2023-02-12T10:28:08;20.88;;;9.38;;
1949;SDS011;975;48.760;9.152;2023-02-12T10:30:38;22.67;;;12.00;;
1949;SDS011;975;48.760;9.152;2023-02-12T10:33:10;22.73;;;11.10;;
1949;SDS011;975;48.760;9.152;2023-02-12T10:35:41;29.20;;;14.30;;
1949;SDS011;975;48.760;9.152;2023-02-12T10:38:12;35.17;;;17.85;;
1949;SDS011;975;48.760;9.152;2023-02-12T10:40:43;29.02;;;14.05;;
1949;SDS011;975;48.760;9.152;2023-02-12T10:43:11;26.02;;;11.43;;
1949;SDS011;975;48.760;9.152;2023-02-12T10:45:40;24.60;;;11.65;;
1949;SDS011;975;48.760;9.152;2023-02-12T10:48:10;29.27;;;13.65;;
1949;SDS011;975;48.760;9.152;2023-02-12T10:50:41;15.77;;;8.00;;
1949;SDS011;975;48.760;9.152;2023-02-12T10:53:14;14.35;;;7.13;;
1949;SDS011;975;48.760;9.152;2023-02-12T10:55:44;14.80;;;6.70;;
1949;SDS011;975;48.760;9.152;2023-02-12T10:58:16;13.98;;;7.03;;
1949;SDS011;975;48.760;9.152;2023-02-12T11:00:46;20.42;;;9.05;;
1949;SDS011;975;48.760;9.152;2023-02-12T11:03:26;21.33;;;9.98;;
1949;SDS011;975;48.760;9.152;2023-02-12T11:05:54;19.55;;;8.95;;
1949;SDS011;975;48.760;9.152;2023-02-12T11:08:31;21.88;;;11.60;;
1949;SDS011;975;48.760;9.152;2023-02-12T11:11:05;24.73;;;10.18;;
1949;SDS011;975;48.760;9.152;2023-02-12T11:13:34;23.85;;;10.65;;
1949;SDS011;975;48.760;9.152;2023-02-12T11:16:02;23.00;;;11.65;;
1949;SDS011;975;48.760;9.152;2023-02-12T11:18:30;25.23;;;12.52;;
1949;SDS011;975;48.760;9.152;2023-02-12T11:20:59;25.17;;;11.43;;
1949;SDS011;975;48.760;9.152;2023-02-12T11:23:29;24.52;;;11.98;;
1949;SDS011;975;48.760;9.152;2023-02-12T11:25:58;21.65;;;9.93;;
1949;SDS011;975;48.760;9.152;2023-02-12T11:28:30;24.33;;;10.88;;
1949;SDS011;975;48.760;9.152;2023-02-12T11:31:22;27.13;;;12.75;;
1949;SDS011;975;48.760;9.152;2023-02-12T11:34:08;20.63;;;9.70;;
1949;SDS011;975;48.760;9.152;2023-02-12T11:36:37;20.83;;;10.90;;
1949;SDS011;975;48.760;9.152;2023-02-12T11:39:14;20.48;;;9.90;;
1949;SDS011;975;48.760;9.152;2023-02-12T11:41:49;20.48;;;10.10;;
1949;SDS011;975;48.760;9.152;2023-02-12T11:44:24;32.22;;;16.40;;
1949;SDS011;975;48.760;9.152;2023-02-12T11:46:56;20.33;;;9.88;;
1949;SDS011;975;48.760;9.152;2023-02-12T11:49:28;19.30;;;9.35;;
1949;SDS011;975;48.760;9.152;2023-02-12T11:51:56;13.77;;;6.85;;
1949;SDS011;975;48.760;9.152;2023-02-12T11:54:27;15.55;;;7.32;;
1949;SDS011;975;48.760;9.152;2023-02-12T11:56:57;16.08;;;7.53;;
1949;SDS011;975;48.760;9.152;2023-02-12T11:59:35;16.00;;;7.32;;
1949;SDS011;975;48.760;9.152;2023-02-12T12:02:08;13.48;;;6.38;;
1949;SDS011;975;48.760;9.152;2023-02-12T12:04:43;13.82;;;6.00;;
1949;SDS011;975;48.760;9.152;2023-02-12T12:07:15;9.30;;;4.95;;
1949;SDS011;975;48.760;9.152;2023-02-12T12:09:46;9.10;;;4.70;;
1949;SDS011;975;48.760;9.152;2023-02-12T12:12:16;8.85;;;4.70;;
1949;SDS011;975;48.760;9.152;2023-02-12T12:17:35;10.55;;;5.22;;
1949;SDS011;975;48.760;9.152;2023-02-12T12:20:22;13.52;;;5.38;;
1949;SDS011;975;48.760;9.152;2023-02-12T12:22:56;10.07;;;5.07;;
1949;SDS011;975;48.760;9.152;2023-02-12T12:25:25;11.75;;;5.10;;
1949;SDS011;975;48.760;9.152;2023-02-12T12:27:56;11.02;;;5.25;;
1949;SDS011;975;48.760;9.152;2023-02-12T12:30:42;11.45;;;5.25;;
1949;SDS011;975;48.760;9.152;2023-02-12T12:33:14;11.52;;;5.47;;
1949;SDS011;975;48.760;9.152;2023-02-12T12:35:44;12.10;;;5.35;;
1949;SDS011;975;48.760;9.152;2023-02-12T12:38:17;10.18;;;5.63;;
1949;SDS011;975;48.760;9.152;2023-02-12T12:40:50;9.30;;;4.70;;
1949;SDS011;975;48.760;9.152;2023-02-12T12:43:24;10.02;;;5.20;;
1949;SDS011;975;48.760;9.152;2023-02-12T12:46:07;9.93;;;5.28;;
1949;SDS011;975;48.760;9.152;2023-02-12T12:48:57;11.48;;;5.00;;
1949;SDS011;975;48.760;9.152;2023-02-12T12:51:36;9.40;;;4.68;;
1949;SDS011;975;48.760;9.152;2023-02-12T12:54:10;9.35;;;5.25;;
1949;SDS011;975;48.760;9.152;2023-02-12T12:56:49;10.18;;;4.63;;
1949;SDS011;975;48.760;9.152;2023-02-12T12:59:36;9.98;;;5.13;;
1949;SDS011;975;48.760;9.152;2023-02-12T13:05:02;8.98;;;4.47;;
1949;SDS011;975;48.760;9.152;2023-02-12T13:07:36;7.78;;;4.50;;
1949;SDS011;975;48.760;9.152;2023-02-12T13:10:14;9.15;;;4.35;;
1949;SDS011;975;48.760;9.152;2023-02-12T13:15:14;7.28;;;3.85;;
1949;SDS011;975;48.760;9.152;2023-02-12T13:17:54;9.68;;;4.32;;
1949;SDS011;975;48.760;9.152;2023-02-12T13:20:30;6.47;;;3.83;;
1949;SDS011;975;48.760;9.152;2023-02-12T13:23:02;8.93;;;4.35;;
1949;SDS011;975;48.760;9.152;2023-02-12T13:27:59;10.57;;;4.43;;
1949;SDS011;975;48.760;9.152;2023-02-12T13:30:30;7.50;;;4.15;;
1949;SDS011;975;48.760;9.152;2023-02-12T13:33:04;10.40;;;4.88;;
1949;SDS011;975;48.760;9.152;2023-02-12T13:35:36;11.77;;;4.60;;
1949;SDS011;975;48.760;9.152;2023-02-12T13:38:04;8.90;;;4.60;;
1949;SDS011;975;48.760;9.152;2023-02-12T13:40:33;10.05;;;4.85;;
1949;SDS011;975;48.760;9.152;2023-02-12T13:43:04;11.10;;;4.65;;
1949;SDS011;975;48.760;9.152;2023-02-12T13:45:39;8.00;;;4.50;;
1949;SDS011;975;48.760;9.152;2023-02-12T13:55:03;8.27;;;4.15;;
1949;SDS011;975;48.760;9.152;2023-02-12T13:57:38;8.82;;;4.05;;
1949;SDS011;975;48.760;9.152;2023-02-12T14:02:59;9.45;;;4.35;;
1949;SDS011;975;48.760;9.152;2023-02-12T14:05:38;7.22;;;3.50;;
1949;SDS011;975;48.760;9.152;2023-02-12T14:08:20;9.15;;;3.60;;
1949;SDS011;975;48.760;9.152;2023-02-12T14:11:12;5.78;;;2.95;;
1949;SDS011;975;48.760;9.152;2023-02-12T14:13:48;5.53;;;2.60;;
1949;SDS011;975;48.760;9.152;2023-02-12T14:16:19;6.22;;;3.38;;
1949;SDS011;975;48.760;9.152;2023-02-12T14:18:47;6.63;;;2.88;;
1949;SDS011;975;48.760;9.152;2023-02-12T14:26:54;4.47;;;2.50;;
1949;SDS011;975;48.760;9.152;2023-02-12T14:29:22;5.22;;;2.75;;
1949;SDS011;975;48.760;9.152;2023-02-12T14:31:50;4.63;;;2.40;;
1949;SDS011;975;48.760;9.152;2023-02-12T14:42:57;3.78;;;2.25;;
1949;SDS011;975;48.760;9.152;2023-02-12T14:47:54;5.22;;;2.38;;
1949;SDS011;975;48.760;9.152;2023-02-12T14:50:23;4.75;;;2.10;;
1949;SDS011;975;48.760;9.152;2023-02-12T14:52:57;5.13;;;2.30;;
1949;SDS011;975;48.760;9.152;2023-02-12T14:55:27;3.92;;;1.73;;
1949;SDS011;975;48.760;9.152;2023-02-12T14:58:15;5.30;;;2.42;;
1949;SDS011;975;48.760;9.152;2023-02-12T15:00:44;4.30;;;2.10;;
1949;SDS011;975;48.760;9.152;2023-02-12T15:03:15;4.00;;;2.45;;
1949;SDS011;975;48.760;9.152;2023-02-12T15:05:48;7.35;;;2.38;;
1949;SDS011;975;48.760;9.152;2023-02-12T15:08:21;3.63;;;1.98;;
1949;SDS011;975;48.760;9.152;2023-02-12T15:10:53;5.07;;;2.50;;
1949;SDS011;975;48.760;9.152;2023-02-12T15:13:25;4.60;;;2.10;;
1949;SDS011;975;48.760;9.152;2023-02-12T15:15:55;3.90;;;2.28;;
1949;SDS011;975;48.760;9.152;2023-02-12T15:18:25;5.18;;;2.30;;
1949;SDS011;975;48.760;9.152;2023-02-12T15:23:46;4.85;;;2.60;;
1949;SDS011;975;48.760;9.152;2023-02-12T15:26:46;4.15;;;2.15;;
1949;SDS011;975;48.760;9.152;2023-02-12T15:32:31;7.15;;;3.83;;
1949;SDS011;975;48.760;9.152;2023-02-12T15:35:18;4.72;;;2.50;;
1949;SDS011;975;48.760;9.152;2023-02-12T15:40:55;4.53;;;2.50;;
1949;SDS011;975;48.760;9.152;2023-02-12T15:43:27;4.22;;;2.38;;
1949;SDS011;975;48.760;9.152;2023-02-12T15:46:14;4.78;;;2.35;;
1949;SDS011;975;48.760;9.152;2023-02-12T15:48:44;4.80;;;2.20;;
1949;SDS011;975;48.760;9.152;2023-02-12T15:51:13;3.70;;;2.25;;
1949;SDS011;975;48.760;9.152;2023-02-12T15:53:42;3.42;;;2.03;;
1949;SDS011;975;48.760;9.152;2023-02-12T15:56:11;3.80;;;2.15;;
1949;SDS011;975;48.760;9.152;2023-02-12T15:58:41;4.57;;;1.67;;
1949;SDS011;975;48.760;9.152;2023-02-12T16:01:13;3.85;;;2.42;;
1949;SDS011;975;48.760;9.152;2023-02-12T16:03:41;4.22;;;2.10;;
1949;SDS011;975;48.760;9.152;2023-02-12T16:06:14;4.63;;;2.40;;
1949;SDS011;975;48.760;9.152;2023-02-12T16:08:43;5.05;;;2.08;;
1949;SDS011;975;48.760;9.152;2023-02-12T16:11:11;3.47;;;2.17;;
1949;SDS011;975;48.760;9.152;2023-02-12T16:13:41;3.92;;;2.30;;
1949;SDS011;975;48.760;9.152;2023-02-12T16:16:15;4.30;;;2.35;;
1949;SDS011;975;48.760;9.152;2023-02-12T16:18:43;4.78;;;2.33;;
1949;SDS011;975;48.760;9.152;2023-02-12T16:21:14;3.97;;;2.35;;
1949;SDS011;975;48.760;9.152;2023-02-12T16:26:14;4.55;;;2.50;;
1949;SDS011;975;48.760;9.152;2023-02-12T16:28:44;5.75;;;2.60;;
1949;SDS011;975;48.760;9.152;2023-02-12T16:31:13;6.35;;;3.15;;
1949;SDS011;975;48.760;9.152;2023-02-12T16:33:45;3.63;;;2.00;;
1949;SDS011;975;48.760;9.152;2023-02-12T16:36:26;3.75;;;2.15;;
1949;SDS011;975;48.760;9.152;2023-02-12T16:38:55;4.32;;;2.15;;